Data for 02/19/2016

Time Sea-Level Adjusted Pressure Absolute Pressure Temperature Relative Humidity Dew Point   
(mb) (inHg) (mb) (inHg) (C) (F) (%) (C) (F)
00:05 1006 29.71 835 24.66 3.9 39.1 35 -10.2 13.7
00:10 1006 29.71 835 24.66 4 39.3 35 -10 14
00:15 1006 29.71 835 24.66 4 39.1 35 -10.1 13.9
00:20 1006 29.71 835 24.66 4 39.2 35 -10.1 13.8
00:25 1006 29.71 835 24.66 4 39.2 34 -10.5 13.1
00:30 1006 29.71 835 24.66 4.2 39.6 35 -9.8 14.3
00:35 1006 29.71 835 24.66 4.2 39.5 34 -10.3 13.5
00:40 1006 29.71 835 24.66 4.4 40 33 -10.4 13.2
00:45 1006 29.71 835 24.66 4.6 40.2 34 -10.1 13.8
00:50 1006 29.71 835 24.66 4.6 40.4 35 -9.4 15.1
00:55 1006 29.71 835 24.66 4.5 40.2 34 -10 14
01:00 1006 29.71 835 24.66 4.7 40.4 35 -9.6 14.7
01:05 1006 29.71 835 24.66 4.7 40.5 37 -8.8 16.1
01:10 1006 29.71 836 24.69 4.5 40.1 37 -8.9 16.1
01:15 1007 29.74 836 24.69 4.4 40 37 -9.1 15.5
01:20 1007 29.74 836 24.69 4.4 39.9 38 -8.7 16.3
01:25 1007 29.74 836 24.69 4.4 39.9 39 -8.3 17
01:30 1007 29.74 836 24.69 4.2 39.6 40 -8.2 17.2
01:35 1007 29.74 836 24.69 4.1 39.4 39 -8.7 16.4
01:40 1007 29.74 836 24.69 4.2 39.5 40 -8.2 17.2
01:45 1007 29.74 836 24.69 4.2 39.6 38 -8.8 16.2
01:50 1007 29.74 836 24.69 4.3 39.8 38 -8.6 16.4
01:55 1007 29.74 836 24.69 4.3 39.7 37 -9 15.7
02:00 1007 29.74 836 24.69 4.5 40.1 38 -8.5 16.7
02:05 1007 29.74 836 24.69 4.3 39.8 40 -8.3 17.1
02:10 1007 29.74 836 24.69 4.3 39.7 39 -8.4 16.8
02:15 1007 29.74 836 24.69 4.3 39.8 39 -8.5 16.7
02:20 1007 29.74 836 24.69 4.4 39.9 40 -8.2 17.2
02:25 1007 29.74 836 24.69 4.3 39.7 39 -8.5 16.6
02:30 1007 29.74 836 24.69 4.4 39.9 38 -8.6 16.5
02:35 1007 29.74 836 24.69 4.5 40 38 -8.6 16.5
02:40 1007 29.74 836 24.69 4.4 40 40 -8 17.7
02:45 1007 29.74 836 24.69 4.3 39.7 40 -8.2 17.2
02:50 1007 29.74 836 24.69 4.2 39.6 41 -7.7 18.1
02:55 1007 29.74 836 24.69 4.3 39.7 40 -8.1 17.4
03:00 1007 29.74 837 24.72 4.2 39.6 42 -7.7 18.2
03:05 1007 29.74 837 24.72 4.2 39.5 42 -7.8 18
03:10 1007 29.74 837 24.72 4.2 39.6 40 -8.2 17.2
03:15 1007 29.74 837 24.72 4.3 39.7 41 -8 17.7
03:20 1008 29.77 837 24.72 4.3 39.7 41 -7.7 18.1
03:25 1008 29.77 837 24.72 4.2 39.5 42 -7.6 18.3
03:30 1008 29.77 837 24.72 4 39.2 43 -7.4 18.7
03:35 1008 29.77 837 24.72 4 39.3 42 -7.9 17.9
03:40 1008 29.77 837 24.72 4.1 39.4 42 -7.8 17.9
03:45 1008 29.77 837 24.72 4.1 39.5 40 -8.1 17.4
03:50 1008 29.77 837 24.72 4.1 39.4 43 -7.4 18.6
03:55 1008 29.77 837 24.72 4.1 39.4 42 -7.6 18.3
04:00 1008 29.77 837 24.72 4 39.2 42 -7.7 18.1
04:05 1008 29.77 837 24.72 4.1 39.4 42 -7.6 18.3
04:10 1008 29.77 838 24.75 4 39.3 42 -7.8 17.9
04:15 1008 29.77 838 24.75 4.1 39.4 44 -7 19.5
04:20 1008 29.77 838 24.75 3.9 39 44 -7.2 19.1
04:25 1009 29.8 838 24.75 3.9 38.9 44 -7.3 18.9
04:30 1009 29.8 838 24.75 4 39.1 46 -6.7 19.9
04:35 1009 29.8 838 24.75 3.9 39 45 -6.8 19.7
04:40 1009 29.8 838 24.75 3.9 39 44 -7.3 18.8
04:45 1009 29.8 839 24.78 4 39.2 44 -7.1 19.3
04:50 1010 29.83 839 24.78 3.9 39.1 46 -6.7 19.9
04:55 1010 29.83 839 24.78 3.8 38.9 47 -6.6 20.2
05:00 1010 29.83 839 24.78 3.8 38.8 46 -6.9 19.6
05:05 1010 29.83 839 24.78 3.8 38.8 46 -6.9 19.6
05:10 1010 29.83 839 24.78 3.9 39 45 -6.9 19.7
05:15 1010 29.83 839 24.78 3.9 39 45 -6.9 19.7
05:20 1010 29.83 839 24.78 3.8 38.8 46 -6.9 19.6
05:25 1010 29.83 839 24.78 3.8 38.8 46 -6.8 19.8
05:30 1010 29.83 839 24.78 3.7 38.6 46 -6.9 19.6
05:35 1010 29.83 840 24.81 3.7 38.6 44 -7.5 18.6
05:40 1010 29.83 840 24.81 3.9 39 41 -8.1 17.4
05:45 1011 29.85 840 24.81 4.1 39.4 41 -8.1 17.5
05:50 1011 29.85 840 24.81 4.1 39.4 42 -7.7 18.2
05:55 1011 29.85 840 24.81 4 39.2 41 -8 17.7
06:00 1011 29.85 840 24.81 4.1 39.3 42 -7.6 18.3
06:05 1011 29.85 840 24.81 4 39.1 43 -7.4 18.7
06:10 1011 29.85 840 24.81 3.8 38.9 43 -7.5 18.5
06:15 1011 29.85 840 24.81 3.8 38.9 44 -7.3 18.8
06:20 1011 29.85 840 24.81 3.6 38.5 43 -7.8 18
06:25 1011 29.85 840 24.81 3.7 38.7 43 -7.7 18.1
06:30 1011 29.85 840 24.81 3.7 38.7 42 -8 17.5
06:35 1011 29.85 840 24.81 3.9 39 41 -8.1 17.5
06:40 1011 29.85 840 24.81 3.8 38.9 42 -8 17.6
06:45 1011 29.85 840 24.81 3.8 38.8 40 -8.5 16.7
06:50 1011 29.85 841 24.83 3.8 38.8 41 -8.2 17.2
06:55 1011 29.85 841 24.83 3.7 38.6 41 -8.4 16.9
07:00 1012 29.88 841 24.83 3.7 38.7 40 -8.6 16.5
07:05 1012 29.88 841 24.83 3.7 38.7 41 -8.4 16.8
07:10 1012 29.88 841 24.83 3.8 38.8 39 -8.9 16
07:15 1012 29.88 841 24.83 3.8 38.9 40 -8.6 16.5
07:20 1012 29.88 841 24.83 3.8 38.9 39 -8.7 16.3
07:25 1012 29.88 841 24.83 3.9 38.9 40 -8.4 16.9
07:30 1012 29.88 841 24.83 3.7 38.7 40 -8.8 16.2
07:35 1012 29.88 841 24.83 3.8 38.8 39 -9 15.9
07:40 1012 29.88 841 24.83 3.9 39 40 -8.6 16.5
07:45 1013 29.91 842 24.86 3.7 38.7 42 -8 17.6
07:50 1013 29.91 842 24.86 3.4 38.1 48 -6.5 20.3
07:55 1013 29.91 842 24.86 2.9 37.3 54 -5.5 22
08:00 1013 29.91 842 24.86 2.5 36.6 58 -4.9 23.2
08:05 1013 29.91 842 24.86 2.2 36 60 -4.8 23.3
08:10 1013 29.91 842 24.86 2 35.6 62 -4.6 23.8
08:15 1013 29.91 842 24.86 1.8 35.3 66 -3.9 25
08:20 1013 29.91 842 24.86 1.7 35.1 65 -4.1 24.7
08:25 1013 29.91 842 24.86 1.7 35 64 -4.4 24.1
08:30 1013 29.91 842 24.86 1.6 35 64 -4.5 23.8
08:35 1013 29.91 842 24.86 1.6 34.8 64 -4.5 23.9
08:40 1013 29.91 842 24.86 1.5 34.8 65 -4.4 24.1
08:45 1013 29.91 843 24.89 1.4 34.6 65 -4.5 23.9
08:50 1014 29.94 843 24.89 1.3 34.4 66 -4.4 24.2
08:55 1014 29.94 843 24.89 1.4 34.5 64 -4.7 23.5
09:00 1014 29.94 843 24.89 1.6 34.9 63 -4.7 23.5
09:05 1014 29.94 843 24.89 2 35.7 61 -4.6 23.7
09:10 1014 29.94 843 24.89 2 35.6 61 -4.7 23.6
09:15 1014 29.94 843 24.89 2.1 35.8 58 -5.3 22.5
09:20 1014 29.94 843 24.89 2.2 36 58 -5.2 22.6
09:25 1014 29.94 843 24.89 2.8 37.1 45 -7.8 17.9
09:30 1014 29.94 843 24.89 3.4 38.2 44 -7.8 18
09:35 1013 29.91 843 24.89 3.7 38.7 42 -8 17.7
09:40 1014 29.94 843 24.89 3.9 39.1 44 -7.3 18.8
09:45 1014 29.94 843 24.89 3.9 39 47 -6.4 20.4
09:50 1014 29.94 843 24.89 3.7 38.6 50 -5.8 21.5
09:55 1014 29.94 843 24.89 3.1 37.6 54 -5.5 22.2
10:00 1014 29.94 843 24.89 2.8 37.1 55 -5.2 22.6
10:05 1014 29.94 843 24.89 3.3 37.9 49 -6.3 20.6
10:10 1014 29.94 843 24.89 3.5 38.3 46 -7 19.4
10:15 1014 29.94 843 24.89 3.7 38.6 47 -6.6 20.1
10:20 1014 29.94 843 24.89 3.6 38.5 44 -7.6 18.3
10:25 1014 29.94 843 24.89 3.7 38.7 45 -7.1 19.3
10:30 1014 29.94 843 24.89 3.7 38.6 41 -8.3 17.1
10:35 1013 29.91 843 24.89 4.3 39.7 36 -9.6 14.7
10:40 1013 29.91 843 24.89 4.7 40.5 35 -9.4 15
10:45 1014 29.94 843 24.89 4.8 40.7 36 -8.9 15.9
10:50 1014 29.94 843 24.89 4.9 40.9 36 -9 15.8
10:55 1014 29.94 843 24.89 5 41 37 -8.6 16.6
11:00 1014 29.94 843 24.89 5.1 41.1 37 -8.4 16.9
11:05 1014 29.94 843 24.89 5.1 41.2 37 -8.6 16.6
11:10 1014 29.94 843 24.89 5.3 41.6 36 -8.5 16.6
11:15 1014 29.94 843 24.89 5.4 41.8 33 -9.5 15
11:20 1014 29.94 843 24.89 5.6 42 35 -8.8 16.2
11:25 1014 29.94 843 24.89 5.7 42.3 33 -9.3 15.3
11:30 1014 29.94 843 24.89 5.8 42.5 33 -9.4 15
11:35 1014 29.94 843 24.89 6 42.8 32 -9.3 15.2
11:40 1014 29.94 843 24.89 6.5 43.7 31 -9.3 15.3
11:45 1014 29.94 843 24.89 6.9 44.3 31 -9.3 15.2
11:50 1014 29.94 843 24.89 7.1 44.7 30 -9.3 15.3
11:55 1014 29.94 843 24.89 7.2 44.9 31 -8.8 16.2
12:00 1014 29.94 843 24.89 7 44.6 30 -9.3 15.2
12:05 1014 29.94 843 24.89 7 44.5 32 -8.8 16.2
12:10 1014 29.94 843 24.89 7.3 45.1 32 -8.5 16.7
12:15 1014 29.94 843 24.89 7.5 45.5 29 -9.4 15.1
12:20 1014 29.94 843 24.89 7.6 45.7 30 -9.1 15.7
12:25 1014 29.94 843 24.89 7.8 46 30 -8.9 16.1
12:30 1014 29.94 843 24.89 7.9 46.2 30 -8.8 16.2
12:35 1014 29.94 843 24.89 8.1 46.5 28 -9.4 15
12:40 1014 29.94 843 24.89 7.5 45.4 29 -9.5 15
12:45 1014 29.94 843 24.89 7.1 44.7 29 -10 14.1
12:50 1014 29.94 843 24.89 7.1 44.7 29 -9.6 14.7
12:55 1014 29.94 843 24.89 7.5 45.4 29 -9.7 14.6
13:00 1014 29.94 843 24.89 7.8 46 28 -9.5 15
13:05 1014 29.94 843 24.89 8 46.4 28 -9.3 15.3
13:10 1014 29.94 843 24.89 8.3 46.9 28 -9.1 15.7
13:15 1014 29.94 843 24.89 8.6 47.5 28 -9.1 15.6
13:20 1014 29.94 843 24.89 8.8 47.8 26 -9.7 14.5
13:25 1014 29.94 843 24.89 9.1 48.4 26 -9.6 14.7
13:30 1014 29.94 843 24.89 9 48.2 26 -9.7 14.6
13:35 1013 29.91 843 24.89 9.1 48.5 24 -10.2 13.6
13:40 1013 29.91 843 24.89 8.8 47.8 26 -9.7 14.6
13:45 1013 29.91 843 24.89 8.7 47.6 24 -10.7 12.7
13:50 1013 29.91 842 24.86 8.9 47.9 26 -9.5 14.9
13:55 1013 29.91 842 24.86 8.3 47 27 -9.7 14.6
14:00 1013 29.91 842 24.86 8.4 47.1 26 -10.1 13.7
14:05 1013 29.91 842 24.86 8.4 47.1 26 -9.9 14.1
14:10 1013 29.91 842 24.86 8.3 47 27 -9.7 14.5
14:15 1013 29.91 842 24.86 8.4 47.1 27 -9.7 14.5
14:20 1013 29.91 842 24.86 8.3 47 28 -9.2 15.5
14:25 1012 29.88 842 24.86 8.6 47.4 27 -9.5 15
14:30 1012 29.88 842 24.86 8.7 47.6 26 -9.8 14.3
14:35 1012 29.88 842 24.86 8.6 47.6 26 -9.6 14.7
14:40 1012 29.88 841 24.83 8.9 48 26 -9.6 14.7
14:45 1012 29.88 841 24.83 9.2 48.6 25 -9.8 14.3
14:50 1012 29.88 841 24.83 9.3 48.7 24 -10 13.9
14:55 1012 29.88 841 24.83 9.2 48.6 24 -10.6 13
15:00 1012 29.88 841 24.83 9 48.3 24 -10.2 13.6
15:05 1012 29.88 841 24.83 8.9 48 26 -9.8 14.3
15:10 1012 29.88 841 24.83 9 48.1 26 -9.6 14.6
15:15 1012 29.88 841 24.83 8.9 48.1 26 -9.8 14.4
15:20 1012 29.88 841 24.83 9.2 48.6 25 -9.8 14.3
15:25 1012 29.88 841 24.83 9.3 48.7 24 -10.2 13.7
15:30 1012 29.88 841 24.83 9.3 48.7 25 -9.8 14.3
15:35 1011 29.85 841 24.83 9.5 49 24 -10.3 13.5
15:40 1011 29.85 840 24.81 10.2 50.3 23 -10.2 13.6
15:45 1011 29.85 840 24.81 10.9 51.6 21 -10.6 13
15:50 1011 29.85 840 24.81 10.7 51.2 21 -10.7 12.7
15:55 1011 29.85 840 24.81 10.5 51 20 -11.3 11.7
16:00 1011 29.85 840 24.81 10.7 51.3 21 -11 12.2
16:05 1011 29.85 840 24.81 10.2 50.4 22 -10.7 12.8
16:10 1011 29.85 840 24.81 9.9 49.8 22 -10.9 12.5
16:15 1011 29.85 840 24.81 9.7 49.5 22 -10.7 12.7
16:20 1011 29.85 841 24.83 9.9 49.8 22 -10.6 12.9
16:25 1011 29.85 841 24.83 10.3 50.6 22 -10.7 12.8
16:30 1012 29.88 841 24.83 10.2 50.3 23 -9.9 14.1
16:35 1012 29.88 841 24.83 10 50 23 -10.2 13.7
16:40 1012 29.88 841 24.83 9.9 49.8 23 -10.3 13.4
16:45 1012 29.88 841 24.83 9.8 49.6 23 -10.6 12.8
16:50 1012 29.88 841 24.83 9.6 49.3 23 -10.7 12.8
16:55 1012 29.88 841 24.83 9.4 48.9 23 -10.5 13
17:00 1012 29.88 841 24.83 9.2 48.5 24 -10.3 13.5
17:05 1012 29.88 841 24.83 9.3 48.8 24 -10.5 13.1
17:10 1012 29.88 841 24.83 9.1 48.5 24 -10.2 13.6
17:15 1012 29.88 841 24.83 8.6 47.4 28 -9.1 15.7
17:20 1012 29.88 841 24.83 8 46.4 26 -10.2 13.7
17:25 1012 29.88 841 24.83 8.1 46.5 26 -10.2 13.6
17:30 1011 29.85 841 24.83 8.1 46.5 27 -9.8 14.3
17:35 1011 29.85 841 24.83 8.2 46.8 26 -10.1 13.8
17:40 1011 29.85 841 24.83 8.4 47.2 25 -10.5 13
17:45 1011 29.85 841 24.83 8.5 47.3 26 -9.7 14.5
17:50 1011 29.85 841 24.83 8.7 47.7 25 -10.3 13.5
17:55 1011 29.85 841 24.83 8.7 47.7 24 -10.7 12.8
18:00 1012 29.88 841 24.83 8.7 47.6 24 -10.6 12.8
18:05 1012 29.88 841 24.83 8.8 47.8 25 -10.4 13.3
18:10 1012 29.88 841 24.83 8.8 47.8 26 -9.9 14.2
18:15 1012 29.88 841 24.83 8.8 47.8 24 -10.8 12.6
18:20 1012 29.88 841 24.83 9.2 48.6 24 -10.1 13.7
18:25 1012 29.88 841 24.83 9 48.1 24 -10.7 12.8
18:30 1012 29.88 841 24.83 9 48.3 24 -10.5 13.2
18:35 1012 29.88 841 24.83 8.7 47.7 25 -10.2 13.7
18:40 1011 29.85 841 24.83 8.1 46.6 25 -10.9 12.4
18:45 1011 29.85 841 24.83 8 46.3 26 -10.5 13.1
18:50 1012 29.88 841 24.83 7.6 45.7 26 -10.7 12.7
18:55 1012 29.88 841 24.83 7.3 45.1 28 -10.3 13.5
19:00 1012 29.88 841 24.83 7.1 44.7 28 -10.3 13.4
19:05 1012 29.88 841 24.83 6.8 44.2 28 -10.5 13.2
19:10 1012 29.88 841 24.83 6.5 43.8 29 -10.4 13.3
19:15 1012 29.88 841 24.83 6.5 43.7 26 -11.5 11.2
19:20 1012 29.88 841 24.83 6.8 44.2 27 -10.8 12.5
19:25 1012 29.88 841 24.83 6.6 43.8 28 -10.8 12.6
19:30 1012 29.88 841 24.83 6.4 43.6 29 -10.4 13.3
19:35 1012 29.88 841 24.83 6.2 43.2 29 -10.6 13
19:40 1012 29.88 841 24.83 6.2 43.1 30 -10.4 13.3
19:45 1012 29.88 841 24.83 6 42.7 26 -11.9 10.5
19:50 1012 29.88 841 24.83 6.2 43.1 27 -11.3 11.6
19:55 1012 29.88 841 24.83 6.1 42.9 28 -11 12.3
20:00 1012 29.88 841 24.83 5.9 42.6 29 -10.9 12.4
20:05 1012 29.88 841 24.83 5.6 42 30 -10.6 12.9
20:10 1012 29.88 841 24.83 5.3 41.6 32 -10.3 13.5
20:15 1012 29.88 841 24.83 5.1 41.1 32 -10.4 13.2
20:20 1012 29.88 841 24.83 5.1 41.2 31 -10.8 12.6
20:25 1012 29.88 841 24.83 5.2 41.4 31 -10.7 12.7
20:30 1012 29.88 841 24.83 5.4 41.7 30 -10.8 12.5
20:35 1012 29.88 841 24.83 5.5 42 30 -10.9 12.4
20:40 1012 29.88 841 24.83 5.6 42.1 30 -10.7 12.8
20:45 1012 29.88 841 24.83 5.7 42.2 29 -10.9 12.3
20:50 1012 29.88 841 24.83 6 42.7 29 -10.7 12.7
20:55 1012 29.88 841 24.83 6 42.9 28 -11.1 12
21:00 1012 29.88 841 24.83 6 42.8 30 -10.5 13.1
21:05 1012 29.88 842 24.86 5.8 42.4 30 -10.4 13.3
21:10 1012 29.88 842 24.86 5.6 42.1 31 -10.3 13.5
21:15 1012 29.88 842 24.86 5.5 41.9 32 -10 13.9
21:20 1013 29.91 842 24.86 5.4 41.7 32 -10.2 13.6
21:25 1013 29.91 842 24.86 5.1 41.2 32 -10.3 13.4
21:30 1013 29.91 842 24.86 5.1 41.1 31 -10.8 12.6
21:35 1013 29.91 842 24.86 5.2 41.3 31 -10.6 12.8
21:40 1013 29.91 842 24.86 5.2 41.4 30 -10.8 12.5
21:45 1013 29.91 842 24.86 5.3 41.6 30 -11.1 12
21:50 1013 29.91 842 24.86 5.5 41.8 29 -11.1 12.1
21:55 1013 29.91 842 24.86 5.4 41.7 32 -9.8 14.3
22:00 1013 29.91 842 24.86 5 41 33 -9.9 14.2
22:05 1013 29.91 842 24.86 5 40.9 31 -10.6 12.9
22:10 1013 29.91 842 24.86 5 40.9 33 -10 14
22:15 1013 29.91 842 24.86 4.9 40.8 32 -10.5 13.1
22:20 1013 29.91 842 24.86 4.8 40.7 32 -10.6 13
22:25 1013 29.91 842 24.86 4.9 40.8 31 -10.8 12.5
22:30 1013 29.91 842 24.86 4.9 40.8 33 -10.3 13.5
22:35 1013 29.91 842 24.86 4.7 40.5 32 -10.7 12.8
22:40 1013 29.91 842 24.86 4.8 40.7 32 -10.6 12.9
22:45 1013 29.91 842 24.86 4.8 40.6 33 -10.4 13.3
22:50 1013 29.91 842 24.86 4.7 40.4 33 -10.3 13.4
22:55 1013 29.91 842 24.86 4.8 40.6 32 -10.5 13.2
23:00 1013 29.91 842 24.86 4.7 40.5 33 -10.4 13.3
23:05 1013 29.91 842 24.86 4.6 40.3 32 -10.5 13.1
23:10 1013 29.91 842 24.86 4.8 40.7 32 -10.6 12.8
23:15 1013 29.91 842 24.86 4.8 40.7 33 -10.3 13.5
23:20 1013 29.91 842 24.86 4.4 40 36 -9.5 14.9
23:25 1013 29.91 843 24.89 4.2 39.5 33 -10.7 12.7
23:30 1013 29.91 842 24.86 4.6 40.3 32 -10.7 12.7
23:35 1013 29.91 842 24.86 4.7 40.5 33 -10.2 13.7
23:40 1013 29.91 842 24.86 4.8 40.6 32 -10.5 13
23:45 1013 29.91 842 24.86 5 41.1 32 -10.5 13.2
23:50 1013 29.91 842 24.86 5.2 41.3 31 -10.5 13.2
23:55 1013 29.91 842 24.86 5.1 41.3 32 -10.2 13.6
24:00 1013 29.91 842 24.86 5 41 32 -10.4 13.4